createdAt,value
2018-04-28T12:59:27.930Z,44.10
2018-04-28T13:01:56.761Z,44.00
2018-04-28T13:04:25.643Z,44.00
2018-04-28T13:06:54.577Z,44.00
2018-04-28T13:09:24.249Z,43.90
2018-04-28T13:11:53.119Z,43.90
2018-04-28T13:14:21.938Z,43.70
2018-04-28T13:16:52.376Z,43.70
2018-04-28T13:19:22.837Z,43.70
2018-04-28T13:21:51.687Z,43.60
2018-04-28T13:24:20.837Z,43.60
2018-04-28T13:26:50.916Z,43.40
2018-04-28T13:29:19.838Z,44.10
2018-04-28T13:31:48.930Z,43.10
2018-04-28T13:34:18.092Z,43.00
2018-04-28T13:36:46.983Z,43.00
2018-04-28T13:39:16.530Z,42.80
2018-04-28T13:41:45.307Z,42.80
2018-04-28T13:44:14.694Z,42.80
2018-04-28T13:46:43.521Z,42.80
2018-04-28T13:49:13.151Z,42.90
2018-04-28T13:51:42.721Z,42.80
2018-04-28T13:54:11.835Z,42.80
2018-04-28T13:56:40.638Z,42.70
2018-04-28T13:59:09.725Z,42.60
2018-04-28T14:01:39.862Z,42.20
2018-04-28T14:04:09.827Z,42.40
2018-04-28T14:06:38.644Z,42.40
2018-04-28T14:09:07.993Z,42.40
2018-04-28T14:11:38.211Z,42.50
2018-04-28T14:14:08.294Z,42.20
2018-04-28T14:16:37.394Z,42.60
2018-04-28T14:19:06.391Z,42.40
2018-04-28T14:21:35.414Z,42.40
2018-04-28T14:24:07.893Z,42.40
2018-04-28T14:26:36.719Z,42.40
2018-04-28T14:29:06.382Z,42.50
2018-04-28T14:31:37.503Z,42.50
2018-04-28T14:34:07.296Z,42.50
2018-04-28T14:36:36.567Z,42.60
2018-04-28T14:39:06.116Z,42.90
2018-04-28T14:41:35.111Z,42.90
2018-04-28T14:44:03.961Z,42.70
2018-04-28T14:46:33.299Z,42.70
2018-04-28T14:49:03.550Z,42.50
2018-04-28T14:51:32.656Z,42.50
2018-04-28T14:54:02.319Z,42.60
2018-04-28T14:56:33.924Z,42.50
2018-04-28T14:59:03.563Z,42.50
2018-04-28T15:01:32.351Z,42.40
2018-04-28T15:04:01.146Z,42.50
2018-04-28T15:06:31.371Z,42.60
2018-04-28T15:09:02.157Z,42.40
2018-04-28T15:11:32.286Z,42.30
2018-04-28T15:14:01.897Z,42.30
2018-04-28T15:16:31.783Z,42.20
2018-04-28T15:19:01.437Z,42.20
2018-04-28T15:21:33.377Z,42.10
2018-04-28T15:24:02.893Z,42.10
2018-04-28T15:26:33.654Z,42.00
2018-04-28T15:29:05.573Z,42.00
2018-04-28T15:31:34.643Z,42.10
2018-04-28T15:34:03.725Z,42.00
2018-04-28T15:36:33.670Z,42.10
2018-04-28T15:39:03.563Z,42.10
2018-04-28T15:41:33.960Z,42.10
2018-04-28T15:44:04.049Z,42.10
2018-04-28T15:46:33.024Z,42.10
2018-04-28T15:49:01.909Z,42.20
2018-04-28T15:51:33.316Z,42.10
2018-04-28T15:54:02.179Z,42.10
2018-04-28T15:56:31.940Z,42.20
2018-04-28T15:59:00.750Z,42.10
2018-04-28T16:01:31.298Z,42.10
2018-04-28T16:04:01.795Z,42.10
2018-04-28T16:12:29.376Z,42.20
2018-04-28T16:14:58.891Z,42.10
2018-04-28T16:17:28.514Z,42.10
2018-04-28T16:19:57.457Z,42.10
2018-04-28T16:22:28.001Z,42.20
2018-04-28T16:25:01.105Z,42.10
2018-04-28T16:27:30.019Z,42.30
2018-04-28T16:29:59.508Z,42.30
2018-04-28T16:32:29.093Z,42.30
2018-04-28T16:34:58.816Z,42.20
2018-04-28T16:37:28.436Z,42.20
2018-04-28T16:39:57.896Z,42.10
2018-04-28T16:42:26.682Z,42.10
2018-04-28T16:44:56.580Z,42.20
2018-04-28T16:47:25.577Z,45.10
2018-04-28T16:49:54.460Z,45.20
2018-04-28T16:52:24.320Z,44.50
2018-04-28T16:54:53.338Z,44.60
2018-04-28T16:57:23.785Z,45.10
2018-04-28T16:59:53.363Z,45.00
2018-04-28T17:02:22.789Z,45.70
2018-04-28T17:04:51.516Z,45.90
2018-04-28T17:07:21.155Z,45.80
2018-04-28T17:09:51.037Z,45.60
2018-04-28T17:12:19.885Z,45.50
2018-04-28T17:14:50.617Z,45.00
2018-04-28T17:17:29.704Z,44.90
2018-04-28T17:19:59.309Z,45.10
2018-04-28T17:22:28.062Z,45.00
2018-04-28T17:24:56.848Z,45.20
2018-04-28T17:27:26.316Z,44.90
2018-04-28T17:29:55.117Z,44.60
2018-04-28T17:32:25.241Z,44.30
2018-04-28T17:34:54.016Z,44.30
2018-04-28T17:37:23.509Z,44.30
2018-04-28T17:39:52.830Z,44.30
2018-04-28T17:42:23.013Z,44.30
2018-04-28T17:44:52.678Z,44.30
2018-04-28T17:47:21.533Z,44.20
2018-04-28T17:49:50.319Z,44.20
2018-04-28T17:52:19.483Z,44.20
2018-04-28T17:54:49.282Z,44.20
2018-04-28T17:57:18.118Z,44.10
2018-04-28T17:59:46.895Z,44.00
2018-04-28T18:02:15.975Z,43.90
2018-04-28T18:04:44.714Z,43.90
2018-04-28T18:07:14.242Z,43.90
2018-04-28T18:09:43.747Z,43.90
2018-04-28T18:12:12.811Z,43.80
2018-04-28T18:14:42.367Z,43.90
2018-04-28T18:17:12.722Z,44.10
2018-04-28T18:19:41.477Z,44.00
2018-04-28T18:22:10.235Z,44.30
2018-04-28T18:24:39.814Z,44.80
2018-04-28T18:27:08.928Z,45.00
2018-04-28T18:29:37.696Z,46.30
2018-04-28T18:32:07.083Z,45.20
2018-04-28T18:34:36.825Z,45.40
2018-04-28T18:37:06.697Z,44.80
2018-04-28T18:39:37.509Z,44.80
2018-04-28T18:42:06.447Z,44.60
2018-04-28T18:44:36.046Z,44.40
2018-04-28T18:47:05.054Z,44.40
2018-04-28T18:49:34.070Z,44.50
2018-04-28T18:52:03.936Z,44.20
2018-04-28T18:54:33.009Z,44.10
2018-04-28T18:57:02.683Z,44.00
2018-04-28T18:59:33.140Z,44.00
2018-04-28T19:02:02.876Z,44.00
2018-04-28T19:04:32.574Z,44.10
2018-04-28T19:07:02.251Z,44.20
2018-04-28T19:09:32.597Z,44.90
2018-04-28T19:12:01.412Z,44.80
2018-04-28T19:14:30.307Z,44.90
2018-04-28T19:16:59.970Z,45.10
2018-04-28T19:19:30.022Z,45.00
2018-04-28T19:22:00.568Z,45.00
2018-04-28T19:24:30.300Z,45.60
2018-04-28T19:26:59.762Z,45.30
2018-04-28T19:29:28.512Z,45.50
2018-04-28T19:31:58.190Z,45.20
2018-04-28T19:34:28.234Z,45.20
2018-04-28T19:36:57.925Z,45.50
2018-04-28T19:39:26.994Z,45.50
2018-04-28T19:41:55.764Z,45.60
2018-04-28T19:44:24.691Z,45.60
2018-04-28T19:46:54.311Z,45.60
2018-04-28T19:49:23.703Z,45.50
2018-04-28T19:51:53.953Z,45.60
2018-04-28T19:54:23.764Z,45.50
2018-04-28T19:56:52.629Z,45.50
2018-04-28T19:59:21.405Z,45.70
2018-04-28T20:01:54.150Z,45.70
2018-04-28T20:04:23.197Z,45.70
2018-04-28T20:06:52.077Z,45.50
2018-04-28T20:09:22.613Z,45.70
2018-04-28T20:11:51.402Z,45.70
2018-04-28T20:14:20.598Z,45.50
2018-04-28T20:16:54.829Z,45.40
